LFPG METAR and TAF | Updated Today

LFPG METAR

Charles de Gaulle International Airport

Observation time: 19 min. ago

LFPG 291130Z 02008KT 280V040 9999 SCT041 BKN053 14/04 Q1016 NOSIG

Need help? Read our tutorial on how to read METARs or read the parsed version below.

Charles de Gaulle International Airport (LFPG) METAR

  • Weather conditions on Sun, 29 May 2022 11:30:00 +0000 (19 min. ago):
  • Present conditions: Dry
  • Clouds: Scattered at 1250 meters; broken sky at 1615 meters
  • Visibility: Greater than 10 km
  • Wind: 20 degrees at 8 knots
  • Temperature: 14 celsius
  • Dew point: 4 celsius
  • Pressure: 1016 millibars
  • Remarks: None


Useful to know...

LFPG TAF

Charles de Gaulle International Airport

TAF LFPG 290500Z 2906/3012 02006KT CAVOK TX17/2915Z TN06/3004Z PROB30 TEMPO 2917/2919 02015G25KT -SHRA FEW050TCU
Observation time: 6:49 hr. ago
Need help? Read our tutorial on how to read TAFs or read the parsed version below.

Parsed version of TAF for Charles de Gaulle International Airport (LFPG)

  • From 29 May at 06:00 UTC, to day 30 of the month at 12:00 UTC
  • Visibility: Greater than 10 km
  • Wind: 20 degrees at 6
  • Expected to arise temporarily, from 29 May at 17:00 UTC, to day 29 of the month at 19:00 UTC
    Probability of 30%
  • Clouds: A few at 1524 meters, towering cumulus
  • Wind: 20 degrees at 15
  • Other: Light showers of rain